Cleveland Hopkins International Airport
KCLE : now visible

Airfield :











YOU CAN JOIN US ON...

 
LOGIN :

Register | Disclaimer

   EN    FR    IT 

 









Legend :    VFR   Marginal VFR   IFR   Intensive IFR   Very Intensive IFR
Visi :
Ceiling :
>= 8 km
>= 3000ft
5 to 8 km
1000 to 3000 ft
1500m to 5 km
500 to 1000 ft
800 to 1500m
200 to 500 ft
< 800m
< 200 ft
Symbols :   Thunderstorms  Fog  Heavy snow  Heavy precipitations  Wind > 20 kt






- Airport Elevation : 791 ft
- IATA code : CLE


KCLE - Cleveland Hopkins International

CURRENT METAR :
  • 240151Z 00000KT 10SM BKN230 M06/M11 A3035 RMK AO2 SLP308 T10611106

EXPIRED METARs :
  • 240051Z 00000KT 10SM BKN230 M06/M11 A3035 RMK AO2 SLP309 T10561111
  • 232351Z 00000KT 10SM SCT250 M06/M12 A3035 RMK AO2 SLP307 T10561117 11028 21061 51002

TAF KCLE
Valid from the 24 at 00:00 until the 25 at 06:00 UTC


232337Z 2400/2506 VRB04KT P6SM BKN250
FM241600 14007KT P6SM VCSH OVC070
FM242000 12007KT P6SM OVC045
KZOB FIR / North America



MET'MAP, your aeronautical weather chart ! - Copyright ORBIFLY December 2007 - Disclaimer

ORBIFLY MET'MAP TEAM :

Programming & Development : Alexandra Zaïnal
Concept & original design : Baudouin d'Aumeries
Assistance for programming : Marc-Olivier Méhu
Technical & hardware support : Manuel Goepfert

Contact : metmap@orbifly.com




SOURCES & CREDITS :

   NOAA       Earth
Advisory